Terminal Aerodrome Forecast
Issued by NWS

Home | Current Version | Previous Version | Text Only | Print | Product List | Glossary On
Versions: 1 2 3 4 5 6 7 8 9 10 11 12 13 14 15 16 17
000
FTUS44 KLZK 261126
TAFPBF
TAF
KPBF 261126Z 2612/2712 33009KT 6SM BR VCSH BKN010 OVC020
     FM261500 32009KT P6SM OVC020
     FM261800 33009KT P6SM OVC030
     FM262200 35005KT P6SM OVC060
     FM270600 VRB03KT P6SM SCT060 BKN120=

USA.gov is the U.S. government's official web portal to all federal, state and local government web resources and services.